sensor_id;sensor_type;location;lat;lon;timestamp;temperature;humidity
49224;DHT22;35050;51.316;5.994;2023-07-13T00:01:28;18.10;99.90
49224;DHT22;35050;51.316;5.994;2023-07-13T00:03:56;18.10;99.90
49224;DHT22;35050;51.316;5.994;2023-07-13T00:06:21;18.20;99.90
49224;DHT22;35050;51.316;5.994;2023-07-13T00:08:47;18.10;99.90
49224;DHT22;35050;51.316;5.994;2023-07-13T00:11:15;18.00;99.90
49224;DHT22;35050;51.316;5.994;2023-07-13T00:13:41;18.00;99.90
49224;DHT22;35050;51.316;5.994;2023-07-13T00:16:08;17.90;99.90
49224;DHT22;35050;51.316;5.994;2023-07-13T00:18:34;17.90;99.90
49224;DHT22;35050;51.316;5.994;2023-07-13T00:21:00;17.80;99.90
49224;DHT22;35050;51.316;5.994;2023-07-13T00:23:32;17.90;99.90
49224;DHT22;35050;51.316;5.994;2023-07-13T00:26:00;17.80;99.90
49224;DHT22;35050;51.316;5.994;2023-07-13T00:28:25;17.60;99.90
49224;DHT22;35050;51.316;5.994;2023-07-13T00:30:51;17.80;99.90
49224;DHT22;35050;51.316;5.994;2023-07-13T00:33:16;17.80;99.90
49224;DHT22;35050;51.316;5.994;2023-07-13T00:35:42;17.60;99.90
49224;DHT22;35050;51.316;5.994;2023-07-13T00:38:09;17.60;99.90
49224;DHT22;35050;51.316;5.994;2023-07-13T00:40:35;17.50;99.90
49224;DHT22;35050;51.316;5.994;2023-07-13T00:43:01;17.50;99.90
49224;DHT22;35050;51.316;5.994;2023-07-13T00:47:53;17.30;99.90
49224;DHT22;35050;51.316;5.994;2023-07-13T00:50:21;17.60;99.90
49224;DHT22;35050;51.316;5.994;2023-07-13T00:52:51;17.50;99.90
49224;DHT22;35050;51.316;5.994;2023-07-13T00:55:18;17.60;99.90
49224;DHT22;35050;51.316;5.994;2023-07-13T00:57:46;17.80;99.90
49224;DHT22;35050;51.316;5.994;2023-07-13T01:00:12;17.90;99.90
49224;DHT22;35050;51.316;5.994;2023-07-13T01:02:45;17.70;99.90
49224;DHT22;35050;51.316;5.994;2023-07-13T01:05:17;17.50;99.90
49224;DHT22;35050;51.316;5.994;2023-07-13T01:07:44;17.70;99.90
49224;DHT22;35050;51.316;5.994;2023-07-13T01:10:12;17.70;99.90
49224;DHT22;35050;51.316;5.994;2023-07-13T01:12:38;17.70;99.90
49224;DHT22;35050;51.316;5.994;2023-07-13T01:15:05;17.70;99.90
49224;DHT22;35050;51.316;5.994;2023-07-13T01:17:33;17.60;99.90
49224;DHT22;35050;51.316;5.994;2023-07-13T01:19:59;17.60;99.90
49224;DHT22;35050;51.316;5.994;2023-07-13T01:22:26;17.50;99.90
49224;DHT22;35050;51.316;5.994;2023-07-13T01:24:53;17.50;99.90
49224;DHT22;35050;51.316;5.994;2023-07-13T01:27:25;17.30;99.90
49224;DHT22;35050;51.316;5.994;2023-07-13T01:29:52;17.40;99.90
49224;DHT22;35050;51.316;5.994;2023-07-13T01:32:24;17.50;99.90
49224;DHT22;35050;51.316;5.994;2023-07-13T01:34:51;17.40;99.90
49224;DHT22;35050;51.316;5.994;2023-07-13T01:37:20;17.30;99.90
49224;DHT22;35050;51.316;5.994;2023-07-13T01:39:46;17.40;99.90
49224;DHT22;35050;51.316;5.994;2023-07-13T01:42:13;17.30;99.90
49224;DHT22;35050;51.316;5.994;2023-07-13T01:44:39;17.50;99.90
49224;DHT22;35050;51.316;5.994;2023-07-13T01:47:05;17.50;99.90
49224;DHT22;35050;51.316;5.994;2023-07-13T01:49:31;17.20;99.90
49224;DHT22;35050;51.316;5.994;2023-07-13T01:51:56;17.10;99.90
49224;DHT22;35050;51.316;5.994;2023-07-13T01:54:22;17.20;99.90
49224;DHT22;35050;51.316;5.994;2023-07-13T01:56:48;17.30;99.90
49224;DHT22;35050;51.316;5.994;2023-07-13T01:59:14;17.30;99.90
49224;DHT22;35050;51.316;5.994;2023-07-13T02:01:39;17.10;99.90
49224;DHT22;35050;51.316;5.994;2023-07-13T02:04:05;17.00;99.90
49224;DHT22;35050;51.316;5.994;2023-07-13T02:06:31;17.00;99.90
49224;DHT22;35050;51.316;5.994;2023-07-13T02:08:57;17.00;99.90
49224;DHT22;35050;51.316;5.994;2023-07-13T02:11:23;17.10;99.90
49224;DHT22;35050;51.316;5.994;2023-07-13T02:13:48;17.00;99.90
49224;DHT22;35050;51.316;5.994;2023-07-13T02:16:14;17.20;99.90
49224;DHT22;35050;51.316;5.994;2023-07-13T02:18:40;17.10;99.90
49224;DHT22;35050;51.316;5.994;2023-07-13T02:21:06;17.20;99.90
49224;DHT22;35050;51.316;5.994;2023-07-13T02:23:31;17.10;99.90
49224;DHT22;35050;51.316;5.994;2023-07-13T02:25:59;17.20;99.90
49224;DHT22;35050;51.316;5.994;2023-07-13T02:28:24;17.10;99.90
49224;DHT22;35050;51.316;5.994;2023-07-13T02:30:50;17.00;99.90
49224;DHT22;35050;51.316;5.994;2023-07-13T02:33:16;17.00;99.90
49224;DHT22;35050;51.316;5.994;2023-07-13T02:35:41;17.10;99.90
49224;DHT22;35050;51.316;5.994;2023-07-13T02:38:07;16.90;99.90
49224;DHT22;35050;51.316;5.994;2023-07-13T02:40:34;17.10;99.90
49224;DHT22;35050;51.316;5.994;2023-07-13T02:43:01;16.90;99.90
49224;DHT22;35050;51.316;5.994;2023-07-13T02:45:27;16.90;99.90
49224;DHT22;35050;51.316;5.994;2023-07-13T02:47:53;17.00;99.90
49224;DHT22;35050;51.316;5.994;2023-07-13T02:50:19;17.00;99.90
49224;DHT22;35050;51.316;5.994;2023-07-13T02:52:44;16.90;99.90
49224;DHT22;35050;51.316;5.994;2023-07-13T02:55:10;16.80;99.90
49224;DHT22;35050;51.316;5.994;2023-07-13T02:57:36;16.80;99.90
49224;DHT22;35050;51.316;5.994;2023-07-13T03:00:03;16.80;99.90
49224;DHT22;35050;51.316;5.994;2023-07-13T03:02:33;16.90;99.90
49224;DHT22;35050;51.316;5.994;2023-07-13T03:05:00;16.70;99.90
49224;DHT22;35050;51.316;5.994;2023-07-13T03:07:25;16.70;99.90
49224;DHT22;35050;51.316;5.994;2023-07-13T03:09:58;16.70;99.90
49224;DHT22;35050;51.316;5.994;2023-07-13T03:12:24;16.70;99.90
49224;DHT22;35050;51.316;5.994;2023-07-13T03:14:50;16.60;99.90
49224;DHT22;35050;51.316;5.994;2023-07-13T03:17:16;16.70;99.90
49224;DHT22;35050;51.316;5.994;2023-07-13T03:19:42;16.80;99.90
49224;DHT22;35050;51.316;5.994;2023-07-13T03:22:07;16.80;99.90
49224;DHT22;35050;51.316;5.994;2023-07-13T03:24:34;16.70;99.90
49224;DHT22;35050;51.316;5.994;2023-07-13T03:27:04;16.70;99.90
49224;DHT22;35050;51.316;5.994;2023-07-13T03:29:30;16.90;99.90
49224;DHT22;35050;51.316;5.994;2023-07-13T03:31:56;16.70;99.90
49224;DHT22;35050;51.316;5.994;2023-07-13T03:34:22;16.70;99.90
49224;DHT22;35050;51.316;5.994;2023-07-13T03:36:47;16.60;99.90
49224;DHT22;35050;51.316;5.994;2023-07-13T03:39:13;16.60;99.90
49224;DHT22;35050;51.316;5.994;2023-07-13T03:41:39;16.50;99.90
49224;DHT22;35050;51.316;5.994;2023-07-13T03:44:05;16.60;99.90
49224;DHT22;35050;51.316;5.994;2023-07-13T03:46:31;16.70;99.90
49224;DHT22;35050;51.316;5.994;2023-07-13T03:48:57;16.70;99.90
49224;DHT22;35050;51.316;5.994;2023-07-13T03:51:22;16.70;99.90
49224;DHT22;35050;51.316;5.994;2023-07-13T03:53:49;16.60;99.90
49224;DHT22;35050;51.316;5.994;2023-07-13T03:56:16;16.70;99.90
49224;DHT22;35050;51.316;5.994;2023-07-13T03:58:44;16.70;99.90
49224;DHT22;35050;51.316;5.994;2023-07-13T04:01:11;16.50;99.90
49224;DHT22;35050;51.316;5.994;2023-07-13T04:03:37;16.60;99.90
49224;DHT22;35050;51.316;5.994;2023-07-13T04:06:05;16.70;99.90
49224;DHT22;35050;51.316;5.994;2023-07-13T04:08:34;16.60;99.90
49224;DHT22;35050;51.316;5.994;2023-07-13T04:11:00;16.60;99.90
49224;DHT22;35050;51.316;5.994;2023-07-13T04:13:26;16.40;99.90
49224;DHT22;35050;51.316;5.994;2023-07-13T04:15:53;16.50;99.90
49224;DHT22;35050;51.316;5.994;2023-07-13T04:18:19;16.70;99.90
49224;DHT22;35050;51.316;5.994;2023-07-13T04:20:46;16.70;99.90
49224;DHT22;35050;51.316;5.994;2023-07-13T04:23:12;16.60;99.90
49224;DHT22;35050;51.316;5.994;2023-07-13T04:25:38;16.70;99.90
49224;DHT22;35050;51.316;5.994;2023-07-13T04:28:06;16.60;99.90
49224;DHT22;35050;51.316;5.994;2023-07-13T04:30:32;16.50;99.90
49224;DHT22;35050;51.316;5.994;2023-07-13T04:32:57;16.70;99.90
49224;DHT22;35050;51.316;5.994;2023-07-13T04:35:23;16.40;99.90
49224;DHT22;35050;51.316;5.994;2023-07-13T04:37:49;16.60;99.90
49224;DHT22;35050;51.316;5.994;2023-07-13T04:40:19;16.70;99.90
49224;DHT22;35050;51.316;5.994;2023-07-13T04:42:46;16.60;99.90
49224;DHT22;35050;51.316;5.994;2023-07-13T04:45:13;16.70;99.90
49224;DHT22;35050;51.316;5.994;2023-07-13T04:47:40;16.60;99.90
49224;DHT22;35050;51.316;5.994;2023-07-13T04:50:07;16.60;99.90
49224;DHT22;35050;51.316;5.994;2023-07-13T04:52:33;16.70;99.90
49224;DHT22;35050;51.316;5.994;2023-07-13T04:55:00;16.70;99.90
49224;DHT22;35050;51.316;5.994;2023-07-13T04:57:26;16.90;99.90
49224;DHT22;35050;51.316;5.994;2023-07-13T04:59:52;16.90;99.90
49224;DHT22;35050;51.316;5.994;2023-07-13T05:02:19;17.10;99.90
49224;DHT22;35050;51.316;5.994;2023-07-13T05:04:48;16.90;99.90
49224;DHT22;35050;51.316;5.994;2023-07-13T05:07:14;17.00;99.90
49224;DHT22;35050;51.316;5.994;2023-07-13T05:09:40;16.90;99.90
49224;DHT22;35050;51.316;5.994;2023-07-13T05:12:08;16.80;99.90
49224;DHT22;35050;51.316;5.994;2023-07-13T05:14:33;16.90;99.90
49224;DHT22;35050;51.316;5.994;2023-07-13T05:16:59;17.00;99.90
49224;DHT22;35050;51.316;5.994;2023-07-13T05:19:25;16.90;99.90
49224;DHT22;35050;51.316;5.994;2023-07-13T05:21:51;17.10;99.90
49224;DHT22;35050;51.316;5.994;2023-07-13T05:24:16;17.20;99.90
49224;DHT22;35050;51.316;5.994;2023-07-13T05:26:42;17.20;99.90
49224;DHT22;35050;51.316;5.994;2023-07-13T05:29:08;17.20;99.90
49224;DHT22;35050;51.316;5.994;2023-07-13T05:31:33;17.20;99.90
49224;DHT22;35050;51.316;5.994;2023-07-13T05:33:59;17.50;99.90
49224;DHT22;35050;51.316;5.994;2023-07-13T05:36:24;18.20;99.90
49224;DHT22;35050;51.316;5.994;2023-07-13T05:38:50;18.40;99.90
49224;DHT22;35050;51.316;5.994;2023-07-13T05:41:16;18.30;99.90
49224;DHT22;35050;51.316;5.994;2023-07-13T05:43:41;18.50;99.90
49224;DHT22;35050;51.316;5.994;2023-07-13T05:46:07;18.60;99.90
49224;DHT22;35050;51.316;5.994;2023-07-13T05:48:32;18.20;99.90
49224;DHT22;35050;51.316;5.994;2023-07-13T05:50:58;18.50;99.90
49224;DHT22;35050;51.316;5.994;2023-07-13T05:53:24;18.90;99.90
49224;DHT22;35050;51.316;5.994;2023-07-13T05:55:49;18.50;99.90
49224;DHT22;35050;51.316;5.994;2023-07-13T05:58:19;18.80;99.90
49224;DHT22;35050;51.316;5.994;2023-07-13T06:00:45;18.70;99.90
49224;DHT22;35050;51.316;5.994;2023-07-13T06:03:11;19.00;99.90
49224;DHT22;35050;51.316;5.994;2023-07-13T06:05:38;18.80;99.90
49224;DHT22;35050;51.316;5.994;2023-07-13T06:08:04;18.60;99.90
49224;DHT22;35050;51.316;5.994;2023-07-13T06:10:33;18.80;99.90
49224;DHT22;35050;51.316;5.994;2023-07-13T06:12:59;18.90;99.90
49224;DHT22;35050;51.316;5.994;2023-07-13T06:15:24;18.60;99.90
49224;DHT22;35050;51.316;5.994;2023-07-13T06:17:50;18.20;99.90
49224;DHT22;35050;51.316;5.994;2023-07-13T06:20:16;18.30;99.90
49224;DHT22;35050;51.316;5.994;2023-07-13T06:22:41;18.40;99.90
49224;DHT22;35050;51.316;5.994;2023-07-13T06:25:07;18.20;99.90
49224;DHT22;35050;51.316;5.994;2023-07-13T06:27:33;18.40;99.90
49224;DHT22;35050;51.316;5.994;2023-07-13T06:29:59;18.40;99.90
49224;DHT22;35050;51.316;5.994;2023-07-13T06:32:24;18.40;99.90
49224;DHT22;35050;51.316;5.994;2023-07-13T06:34:51;18.50;99.90
49224;DHT22;35050;51.316;5.994;2023-07-13T06:37:17;18.30;99.90
49224;DHT22;35050;51.316;5.994;2023-07-13T06:39:43;18.40;99.90
49224;DHT22;35050;51.316;5.994;2023-07-13T06:42:09;18.30;99.90
49224;DHT22;35050;51.316;5.994;2023-07-13T06:44:35;18.20;99.90
49224;DHT22;35050;51.316;5.994;2023-07-13T06:47:00;18.30;99.90
49224;DHT22;35050;51.316;5.994;2023-07-13T06:49:26;18.30;99.90
49224;DHT22;35050;51.316;5.994;2023-07-13T06:51:52;18.40;99.90
49224;DHT22;35050;51.316;5.994;2023-07-13T06:54:17;18.40;99.90
49224;DHT22;35050;51.316;5.994;2023-07-13T06:56:43;18.50;99.90
49224;DHT22;35050;51.316;5.994;2023-07-13T06:59:09;18.70;99.90
49224;DHT22;35050;51.316;5.994;2023-07-13T07:01:34;18.70;99.90
49224;DHT22;35050;51.316;5.994;2023-07-13T07:04:00;18.60;99.90
49224;DHT22;35050;51.316;5.994;2023-07-13T07:06:25;18.50;99.90
49224;DHT22;35050;51.316;5.994;2023-07-13T07:08:52;18.80;99.90
49224;DHT22;35050;51.316;5.994;2023-07-13T07:11:21;18.90;99.90
49224;DHT22;35050;51.316;5.994;2023-07-13T07:13:51;18.60;99.90
49224;DHT22;35050;51.316;5.994;2023-07-13T07:16:17;18.60;99.90
49224;DHT22;35050;51.316;5.994;2023-07-13T07:18:43;18.80;99.90
49224;DHT22;35050;51.316;5.994;2023-07-13T07:21:10;19.00;99.90
49224;DHT22;35050;51.316;5.994;2023-07-13T07:23:35;18.90;99.90
49224;DHT22;35050;51.316;5.994;2023-07-13T07:26:01;18.30;99.90
49224;DHT22;35050;51.316;5.994;2023-07-13T07:28:27;18.60;99.90
49224;DHT22;35050;51.316;5.994;2023-07-13T07:30:56;18.50;99.90
49224;DHT22;35050;51.316;5.994;2023-07-13T07:33:22;18.60;99.90
49224;DHT22;35050;51.316;5.994;2023-07-13T07:35:48;18.70;99.90
49224;DHT22;35050;51.316;5.994;2023-07-13T07:38:14;18.80;99.90
49224;DHT22;35050;51.316;5.994;2023-07-13T07:40:40;18.90;99.90
49224;DHT22;35050;51.316;5.994;2023-07-13T07:43:11;18.70;99.90
49224;DHT22;35050;51.316;5.994;2023-07-13T07:45:37;18.70;99.90
49224;DHT22;35050;51.316;5.994;2023-07-13T07:48:04;19.10;99.90
49224;DHT22;35050;51.316;5.994;2023-07-13T07:50:30;19.20;99.90
49224;DHT22;35050;51.316;5.994;2023-07-13T07:52:56;19.30;99.90
49224;DHT22;35050;51.316;5.994;2023-07-13T07:55:22;19.40;99.90
49224;DHT22;35050;51.316;5.994;2023-07-13T07:57:49;19.50;99.90
49224;DHT22;35050;51.316;5.994;2023-07-13T08:00:15;19.60;99.90
49224;DHT22;35050;51.316;5.994;2023-07-13T08:02:41;19.70;99.90
49224;DHT22;35050;51.316;5.994;2023-07-13T08:05:08;19.40;99.90
49224;DHT22;35050;51.316;5.994;2023-07-13T08:07:35;19.60;99.90
49224;DHT22;35050;51.316;5.994;2023-07-13T08:10:00;19.60;99.90
49224;DHT22;35050;51.316;5.994;2023-07-13T08:12:26;20.00;99.90
49224;DHT22;35050;51.316;5.994;2023-07-13T08:14:52;20.20;99.90
49224;DHT22;35050;51.316;5.994;2023-07-13T08:17:23;20.30;99.90
49224;DHT22;35050;51.316;5.994;2023-07-13T08:19:49;20.20;99.90
49224;DHT22;35050;51.316;5.994;2023-07-13T08:22:15;20.00;99.90
49224;DHT22;35050;51.316;5.994;2023-07-13T08:24:41;20.20;99.90
49224;DHT22;35050;51.316;5.994;2023-07-13T08:27:08;20.20;99.90
49224;DHT22;35050;51.316;5.994;2023-07-13T08:29:34;20.30;99.90
49224;DHT22;35050;51.316;5.994;2023-07-13T08:31:59;20.40;99.90
49224;DHT22;35050;51.316;5.994;2023-07-13T08:34:25;20.30;99.90
49224;DHT22;35050;51.316;5.994;2023-07-13T08:36:51;20.30;99.90
49224;DHT22;35050;51.316;5.994;2023-07-13T08:39:16;20.60;99.90
49224;DHT22;35050;51.316;5.994;2023-07-13T08:41:46;20.80;99.90
49224;DHT22;35050;51.316;5.994;2023-07-13T08:44:24;21.00;99.90
49224;DHT22;35050;51.316;5.994;2023-07-13T08:46:53;20.50;99.90
49224;DHT22;35050;51.316;5.994;2023-07-13T08:49:22;20.40;99.90
49224;DHT22;35050;51.316;5.994;2023-07-13T08:54:49;20.80;99.90
49224;DHT22;35050;51.316;5.994;2023-07-13T08:57:21;21.20;99.90
49224;DHT22;35050;51.316;5.994;2023-07-13T08:59:48;21.30;99.90
49224;DHT22;35050;51.316;5.994;2023-07-13T09:02:57;21.90;99.90
49224;DHT22;35050;51.316;5.994;2023-07-13T09:05:33;21.60;99.90
49224;DHT22;35050;51.316;5.994;2023-07-13T09:11:28;21.60;99.90
49224;DHT22;35050;51.316;5.994;2023-07-13T09:14:31;21.50;99.90
49224;DHT22;35050;51.316;5.994;2023-07-13T09:17:00;21.80;99.90
49224;DHT22;35050;51.316;5.994;2023-07-13T09:19:29;21.60;99.90
49224;DHT22;35050;51.316;5.994;2023-07-13T09:21:58;21.10;99.90
49224;DHT22;35050;51.316;5.994;2023-07-13T09:24:31;22.00;99.90
49224;DHT22;35050;51.316;5.994;2023-07-13T09:27:03;21.90;99.90
49224;DHT22;35050;51.316;5.994;2023-07-13T09:29:33;22.40;99.90
49224;DHT22;35050;51.316;5.994;2023-07-13T09:32:02;22.40;99.90
49224;DHT22;35050;51.316;5.994;2023-07-13T09:34:29;22.40;99.90
49224;DHT22;35050;51.316;5.994;2023-07-13T09:36:56;22.30;99.90
49224;DHT22;35050;51.316;5.994;2023-07-13T09:39:30;22.10;99.90
49224;DHT22;35050;51.316;5.994;2023-07-13T09:44:32;21.90;99.90
49224;DHT22;35050;51.316;5.994;2023-07-13T09:46:59;22.10;99.90
49224;DHT22;35050;51.316;5.994;2023-07-13T09:49:29;22.70;99.90
49224;DHT22;35050;51.316;5.994;2023-07-13T09:52:03;23.40;99.90
49224;DHT22;35050;51.316;5.994;2023-07-13T09:54:34;23.20;99.90
49224;DHT22;35050;51.316;5.994;2023-07-13T09:57:01;23.40;99.90
49224;DHT22;35050;51.316;5.994;2023-07-13T09:59:30;23.80;99.90
49224;DHT22;35050;51.316;5.994;2023-07-13T10:01:57;23.60;99.90
49224;DHT22;35050;51.316;5.994;2023-07-13T10:04:30;23.30;99.90
49224;DHT22;35050;51.316;5.994;2023-07-13T10:07:11;23.90;99.90
49224;DHT22;35050;51.316;5.994;2023-07-13T10:09:38;23.40;99.90
49224;DHT22;35050;51.316;5.994;2023-07-13T10:12:13;23.30;99.90
49224;DHT22;35050;51.316;5.994;2023-07-13T10:14:40;24.00;99.90
49224;DHT22;35050;51.316;5.994;2023-07-13T10:17:12;23.30;99.90
49224;DHT22;35050;51.316;5.994;2023-07-13T10:19:41;23.30;99.90
49224;DHT22;35050;51.316;5.994;2023-07-13T10:25:21;23.60;99.90
49224;DHT22;35050;51.316;5.994;2023-07-13T10:27:52;24.30;99.90
49224;DHT22;35050;51.316;5.994;2023-07-13T10:30:27;24.10;99.90
49224;DHT22;35050;51.316;5.994;2023-07-13T10:32:58;24.70;99.90
49224;DHT22;35050;51.316;5.994;2023-07-13T10:35:26;24.60;99.90
49224;DHT22;35050;51.316;5.994;2023-07-13T10:38:03;25.10;99.90
49224;DHT22;35050;51.316;5.994;2023-07-13T10:40:37;24.40;99.90
49224;DHT22;35050;51.316;5.994;2023-07-13T10:43:09;24.00;99.90
49224;DHT22;35050;51.316;5.994;2023-07-13T10:45:40;24.60;99.90
49224;DHT22;35050;51.316;5.994;2023-07-13T10:48:07;24.90;98.80
49224;DHT22;35050;51.316;5.994;2023-07-13T10:50:38;25.50;99.30
49224;DHT22;35050;51.316;5.994;2023-07-13T10:53:31;25.20;99.90
49224;DHT22;35050;51.316;5.994;2023-07-13T10:56:06;25.60;98.90
49224;DHT22;35050;51.316;5.994;2023-07-13T10:58:43;26.20;98.50
49224;DHT22;35050;51.316;5.994;2023-07-13T11:01:17;25.50;98.60
49224;DHT22;35050;51.316;5.994;2023-07-13T11:08:55;23.80;99.40
49224;DHT22;35050;51.316;5.994;2023-07-13T11:21:29;25.60;97.50
49224;DHT22;35050;51.316;5.994;2023-07-13T11:24:16;25.60;96.00
49224;DHT22;35050;51.316;5.994;2023-07-13T11:31:53;26.20;95.70
49224;DHT22;35050;51.316;5.994;2023-07-13T11:34:29;25.90;95.80
49224;DHT22;35050;51.316;5.994;2023-07-13T11:36:57;25.00;95.20
49224;DHT22;35050;51.316;5.994;2023-07-13T11:39:31;24.80;96.80
49224;DHT22;35050;51.316;5.994;2023-07-13T11:42:06;24.50;97.30
49224;DHT22;35050;51.316;5.994;2023-07-13T11:44:34;24.60;96.20
49224;DHT22;35050;51.316;5.994;2023-07-13T11:47:10;24.90;96.70
49224;DHT22;35050;51.316;5.994;2023-07-13T11:49:48;25.10;95.90
49224;DHT22;35050;51.316;5.994;2023-07-13T11:52:17;25.00;96.50
49224;DHT22;35050;51.316;5.994;2023-07-13T11:54:54;25.60;96.90
49224;DHT22;35050;51.316;5.994;2023-07-13T11:59:58;26.30;96.50
49224;DHT22;35050;51.316;5.994;2023-07-13T12:02:33;26.30;95.00
49224;DHT22;35050;51.316;5.994;2023-07-13T12:05:00;26.80;96.10
49224;DHT22;35050;51.316;5.994;2023-07-13T12:07:33;26.20;95.30
49224;DHT22;35050;51.316;5.994;2023-07-13T12:10:25;26.00;95.10
49224;DHT22;35050;51.316;5.994;2023-07-13T12:13:01;26.40;94.70
49224;DHT22;35050;51.316;5.994;2023-07-13T12:18:12;27.00;94.10
49224;DHT22;35050;51.316;5.994;2023-07-13T12:20:39;26.90;94.70
49224;DHT22;35050;51.316;5.994;2023-07-13T12:23:28;26.70;94.20
49224;DHT22;35050;51.316;5.994;2023-07-13T12:25:54;26.60;94.60
49224;DHT22;35050;51.316;5.994;2023-07-13T12:28:44;26.00;94.70
49224;DHT22;35050;51.316;5.994;2023-07-13T12:31:41;25.40;94.70
49224;DHT22;35050;51.316;5.994;2023-07-13T12:34:14;25.40;96.30
49224;DHT22;35050;51.316;5.994;2023-07-13T12:36:45;25.00;95.70
49224;DHT22;35050;51.316;5.994;2023-07-13T12:39:17;25.30;95.60
49224;DHT22;35050;51.316;5.994;2023-07-13T12:41:44;25.30;95.20
49224;DHT22;35050;51.316;5.994;2023-07-13T12:44:20;25.00;95.00
49224;DHT22;35050;51.316;5.994;2023-07-13T12:46:57;26.00;95.20
49224;DHT22;35050;51.316;5.994;2023-07-13T12:49:26;26.10;96.00
49224;DHT22;35050;51.316;5.994;2023-07-13T12:51:58;26.40;95.00
49224;DHT22;35050;51.316;5.994;2023-07-13T12:54:25;26.30;94.70
49224;DHT22;35050;51.316;5.994;2023-07-13T12:56:53;26.50;94.80
49224;DHT22;35050;51.316;5.994;2023-07-13T12:59:21;26.60;95.00
49224;DHT22;35050;51.316;5.994;2023-07-13T13:01:48;26.30;94.60
49224;DHT22;35050;51.316;5.994;2023-07-13T13:04:19;26.50;95.90
49224;DHT22;35050;51.316;5.994;2023-07-13T13:06:47;26.70;94.40
49224;DHT22;35050;51.316;5.994;2023-07-13T13:09:15;27.10;95.40
49224;DHT22;35050;51.316;5.994;2023-07-13T13:11:41;26.90;94.40
49224;DHT22;35050;51.316;5.994;2023-07-13T13:14:08;26.20;94.20
49224;DHT22;35050;51.316;5.994;2023-07-13T13:16:40;26.50;94.10
49224;DHT22;35050;51.316;5.994;2023-07-13T13:19:19;26.30;93.60
49224;DHT22;35050;51.316;5.994;2023-07-13T13:21:48;26.20;93.70
49224;DHT22;35050;51.316;5.994;2023-07-13T13:24:20;25.80;94.00
49224;DHT22;35050;51.316;5.994;2023-07-13T13:26:47;25.70;93.40
49224;DHT22;35050;51.316;5.994;2023-07-13T13:29:20;25.80;94.00
49224;DHT22;35050;51.316;5.994;2023-07-13T13:31:46;26.30;93.80
49224;DHT22;35050;51.316;5.994;2023-07-13T13:34:17;26.70;93.80
49224;DHT22;35050;51.316;5.994;2023-07-13T13:36:44;26.20;92.60
49224;DHT22;35050;51.316;5.994;2023-07-13T13:39:32;26.00;93.50
49224;DHT22;35050;51.316;5.994;2023-07-13T13:41:58;25.10;92.90
49224;DHT22;35050;51.316;5.994;2023-07-13T13:44:24;25.20;93.80
49224;DHT22;35050;51.316;5.994;2023-07-13T13:46:52;25.10;94.20
49224;DHT22;35050;51.316;5.994;2023-07-13T13:49:22;25.10;94.30
49224;DHT22;35050;51.316;5.994;2023-07-13T13:51:49;25.10;94.20
49224;DHT22;35050;51.316;5.994;2023-07-13T13:54:16;24.90;95.20
49224;DHT22;35050;51.316;5.994;2023-07-13T13:56:47;24.50;94.50
49224;DHT22;35050;51.316;5.994;2023-07-13T13:59:14;24.00;96.10
49224;DHT22;35050;51.316;5.994;2023-07-13T14:01:41;23.40;99.90
49224;DHT22;35050;51.316;5.994;2023-07-13T14:04:18;22.50;99.90
49224;DHT22;35050;51.316;5.994;2023-07-13T14:06:44;21.90;99.90
49224;DHT22;35050;51.316;5.994;2023-07-13T14:09:13;21.70;99.90
49224;DHT22;35050;51.316;5.994;2023-07-13T14:11:40;21.70;99.90
49224;DHT22;35050;51.316;5.994;2023-07-13T14:14:20;21.40;99.90
49224;DHT22;35050;51.316;5.994;2023-07-13T14:16:47;21.90;99.90
49224;DHT22;35050;51.316;5.994;2023-07-13T14:19:18;21.70;99.90
49224;DHT22;35050;51.316;5.994;2023-07-13T14:21:44;21.70;99.90
49224;DHT22;35050;51.316;5.994;2023-07-13T14:24:10;21.60;99.90
49224;DHT22;35050;51.316;5.994;2023-07-13T14:26:38;21.50;99.90
49224;DHT22;35050;51.316;5.994;2023-07-13T14:29:14;21.40;99.90
49224;DHT22;35050;51.316;5.994;2023-07-13T14:31:41;21.30;99.90
49224;DHT22;35050;51.316;5.994;2023-07-13T14:34:09;21.30;99.90
49224;DHT22;35050;51.316;5.994;2023-07-13T14:36:48;21.30;99.90
49224;DHT22;35050;51.316;5.994;2023-07-13T14:39:19;21.20;99.90
49224;DHT22;35050;51.316;5.994;2023-07-13T14:41:45;20.80;99.90
49224;DHT22;35050;51.316;5.994;2023-07-13T14:44:15;21.00;99.90
49224;DHT22;35050;51.316;5.994;2023-07-13T14:46:42;20.60;99.90
49224;DHT22;35050;51.316;5.994;2023-07-13T14:49:28;20.80;99.90
49224;DHT22;35050;51.316;5.994;2023-07-13T14:52:00;20.80;99.90
49224;DHT22;35050;51.316;5.994;2023-07-13T14:54:27;20.90;99.90
49224;DHT22;35050;51.316;5.994;2023-07-13T14:56:53;21.00;99.90
49224;DHT22;35050;51.316;5.994;2023-07-13T14:59:18;21.00;99.90
49224;DHT22;35050;51.316;5.994;2023-07-13T15:01:45;20.80;99.90
49224;DHT22;35050;51.316;5.994;2023-07-13T15:04:11;21.10;99.90
49224;DHT22;35050;51.316;5.994;2023-07-13T15:06:57;20.80;99.90
49224;DHT22;35050;51.316;5.994;2023-07-13T15:09:24;21.00;99.90
49224;DHT22;35050;51.316;5.994;2023-07-13T15:11:55;20.70;99.90
49224;DHT22;35050;51.316;5.994;2023-07-13T15:14:21;20.80;99.90
49224;DHT22;35050;51.316;5.994;2023-07-13T15:16:50;21.00;99.90
49224;DHT22;35050;51.316;5.994;2023-07-13T15:19:18;20.90;99.90
49224;DHT22;35050;51.316;5.994;2023-07-13T15:21:44;21.10;99.90
49224;DHT22;35050;51.316;5.994;2023-07-13T15:24:13;21.10;99.90
49224;DHT22;35050;51.316;5.994;2023-07-13T15:26:39;21.20;99.90
49224;DHT22;35050;51.316;5.994;2023-07-13T15:29:05;21.00;99.90
49224;DHT22;35050;51.316;5.994;2023-07-13T15:31:32;21.10;99.90
49224;DHT22;35050;51.316;5.994;2023-07-13T15:33:59;21.00;99.90
49224;DHT22;35050;51.316;5.994;2023-07-13T15:36:26;21.10;99.90
49224;DHT22;35050;51.316;5.994;2023-07-13T15:38:54;21.10;99.90
49224;DHT22;35050;51.316;5.994;2023-07-13T15:41:25;21.10;99.90
49224;DHT22;35050;51.316;5.994;2023-07-13T15:43:54;21.20;99.90
49224;DHT22;35050;51.316;5.994;2023-07-13T15:46:21;21.30;99.90
49224;DHT22;35050;51.316;5.994;2023-07-13T15:48:51;21.30;99.90
49224;DHT22;35050;51.316;5.994;2023-07-13T15:51:24;21.00;99.90
49224;DHT22;35050;51.316;5.994;2023-07-13T15:53:53;21.10;99.90
49224;DHT22;35050;51.316;5.994;2023-07-13T15:56:28;21.00;99.90
49224;DHT22;35050;51.316;5.994;2023-07-13T15:58:55;21.30;99.90
49224;DHT22;35050;51.316;5.994;2023-07-13T16:01:22;21.30;99.90
49224;DHT22;35050;51.316;5.994;2023-07-13T16:03:49;21.50;99.90
49224;DHT22;35050;51.316;5.994;2023-07-13T16:06:20;21.50;99.90
49224;DHT22;35050;51.316;5.994;2023-07-13T16:08:48;21.80;99.90
49224;DHT22;35050;51.316;5.994;2023-07-13T16:11:35;22.00;99.90
49224;DHT22;35050;51.316;5.994;2023-07-13T16:14:01;21.60;99.90
49224;DHT22;35050;51.316;5.994;2023-07-13T16:16:29;22.10;99.90
49224;DHT22;35050;51.316;5.994;2023-07-13T16:18:58;22.20;99.90